sensor_id;sensor_type;location;lat;lon;timestamp;P1;durP1;ratioP1;P2;durP2;ratioP2
41927;SDS011;27616;51.420;6.788;2023-03-14T00:02:21;6.90;;;1.40;;
41927;SDS011;27616;51.420;6.788;2023-03-14T00:04:47;8.43;;;1.83;;
41927;SDS011;27616;51.420;6.788;2023-03-14T00:07:12;6.10;;;1.50;;
41927;SDS011;27616;51.420;6.788;2023-03-14T00:09:39;6.97;;;1.53;;
41927;SDS011;27616;51.420;6.788;2023-03-14T00:12:04;7.70;;;1.53;;
41927;SDS011;27616;51.420;6.788;2023-03-14T00:14:32;8.53;;;1.57;;
41927;SDS011;27616;51.420;6.788;2023-03-14T00:16:58;9.00;;;1.53;;
41927;SDS011;27616;51.420;6.788;2023-03-14T00:19:23;6.07;;;1.30;;
41927;SDS011;27616;51.420;6.788;2023-03-14T00:21:49;7.30;;;1.53;;
41927;SDS011;27616;51.420;6.788;2023-03-14T00:24:15;7.93;;;1.57;;
41927;SDS011;27616;51.420;6.788;2023-03-14T00:26:40;9.80;;;1.50;;
41927;SDS011;27616;51.420;6.788;2023-03-14T00:29:06;5.83;;;1.70;;
41927;SDS011;27616;51.420;6.788;2023-03-14T00:31:32;8.63;;;1.50;;
41927;SDS011;27616;51.420;6.788;2023-03-14T00:33:59;9.23;;;2.57;;
41927;SDS011;27616;51.420;6.788;2023-03-14T00:36:24;8.67;;;2.20;;
41927;SDS011;27616;51.420;6.788;2023-03-14T00:38:50;11.60;;;2.63;;
41927;SDS011;27616;51.420;6.788;2023-03-14T00:41:18;8.70;;;1.70;;
41927;SDS011;27616;51.420;6.788;2023-03-14T00:43:47;5.27;;;1.23;;
41927;SDS011;27616;51.420;6.788;2023-03-14T00:46:13;5.93;;;1.00;;
41927;SDS011;27616;51.420;6.788;2023-03-14T00:48:42;6.80;;;1.17;;
41927;SDS011;27616;51.420;6.788;2023-03-14T00:51:10;8.40;;;1.73;;
41927;SDS011;27616;51.420;6.788;2023-03-14T00:53:42;5.20;;;1.10;;
41927;SDS011;27616;51.420;6.788;2023-03-14T00:56:09;6.03;;;1.10;;
41927;SDS011;27616;51.420;6.788;2023-03-14T00:58:36;5.30;;;1.13;;
41927;SDS011;27616;51.420;6.788;2023-03-14T01:01:10;2.87;;;1.00;;
41927;SDS011;27616;51.420;6.788;2023-03-14T01:03:38;7.77;;;1.00;;
41927;SDS011;27616;51.420;6.788;2023-03-14T01:06:23;4.23;;;0.80;;
41927;SDS011;27616;51.420;6.788;2023-03-14T01:08:51;5.70;;;0.97;;
41927;SDS011;27616;51.420;6.788;2023-03-14T01:11:23;5.23;;;1.17;;
41927;SDS011;27616;51.420;6.788;2023-03-14T01:13:50;6.47;;;1.10;;
41927;SDS011;27616;51.420;6.788;2023-03-14T01:16:17;9.67;;;1.40;;
41927;SDS011;27616;51.420;6.788;2023-03-14T01:18:44;6.83;;;1.57;;
41927;SDS011;27616;51.420;6.788;2023-03-14T01:21:11;6.23;;;1.10;;
41927;SDS011;27616;51.420;6.788;2023-03-14T01:23:43;4.80;;;1.00;;
41927;SDS011;27616;51.420;6.788;2023-03-14T01:26:10;6.90;;;1.20;;
41927;SDS011;27616;51.420;6.788;2023-03-14T01:28:38;5.97;;;1.03;;
41927;SDS011;27616;51.420;6.788;2023-03-14T01:31:04;5.60;;;1.33;;
41927;SDS011;27616;51.420;6.788;2023-03-14T01:33:31;7.23;;;1.30;;
41927;SDS011;27616;51.420;6.788;2023-03-14T01:35:56;7.87;;;1.30;;
41927;SDS011;27616;51.420;6.788;2023-03-14T01:38:22;8.17;;;1.10;;
41927;SDS011;27616;51.420;6.788;2023-03-14T01:40:48;7.60;;;1.23;;
41927;SDS011;27616;51.420;6.788;2023-03-14T01:43:17;9.50;;;1.40;;
41927;SDS011;27616;51.420;6.788;2023-03-14T01:51:11;6.93;;;1.27;;
41927;SDS011;27616;51.420;6.788;2023-03-14T01:53:40;6.20;;;1.20;;
41927;SDS011;27616;51.420;6.788;2023-03-14T01:56:09;6.13;;;1.00;;
41927;SDS011;27616;51.420;6.788;2023-03-14T01:58:38;6.97;;;0.90;;
41927;SDS011;27616;51.420;6.788;2023-03-14T02:01:08;7.17;;;1.43;;
41927;SDS011;27616;51.420;6.788;2023-03-14T02:03:36;5.60;;;1.23;;
41927;SDS011;27616;51.420;6.788;2023-03-14T02:06:10;8.17;;;1.23;;
41927;SDS011;27616;51.420;6.788;2023-03-14T02:08:39;8.77;;;1.30;;
41927;SDS011;27616;51.420;6.788;2023-03-14T02:11:11;4.63;;;1.00;;
41927;SDS011;27616;51.420;6.788;2023-03-14T02:13:46;9.63;;;1.27;;
41927;SDS011;27616;51.420;6.788;2023-03-14T02:16:34;7.57;;;1.10;;
41927;SDS011;27616;51.420;6.788;2023-03-14T02:19:14;7.27;;;1.30;;
41927;SDS011;27616;51.420;6.788;2023-03-14T02:22:10;7.10;;;1.30;;
41927;SDS011;27616;51.420;6.788;2023-03-14T02:27:46;7.57;;;1.27;;
41927;SDS011;27616;51.420;6.788;2023-03-14T02:30:20;7.80;;;1.03;;
41927;SDS011;27616;51.420;6.788;2023-03-14T02:32:50;8.53;;;1.10;;
41927;SDS011;27616;51.420;6.788;2023-03-14T02:35:20;7.43;;;1.40;;
41927;SDS011;27616;51.420;6.788;2023-03-14T02:40:19;6.27;;;1.50;;
41927;SDS011;27616;51.420;6.788;2023-03-14T02:42:49;5.40;;;1.10;;
41927;SDS011;27616;51.420;6.788;2023-03-14T02:47:44;7.87;;;1.33;;
41927;SDS011;27616;51.420;6.788;2023-03-14T02:50:16;8.13;;;1.37;;
41927;SDS011;27616;51.420;6.788;2023-03-14T02:52:45;6.27;;;1.27;;
41927;SDS011;27616;51.420;6.788;2023-03-14T02:55:11;5.90;;;1.40;;
41927;SDS011;27616;51.420;6.788;2023-03-14T02:57:40;9.18;;;1.30;;
41927;SDS011;27616;51.420;6.788;2023-03-14T03:00:05;7.83;;;1.47;;
41927;SDS011;27616;51.420;6.788;2023-03-14T03:02:35;6.67;;;1.20;;
41927;SDS011;27616;51.420;6.788;2023-03-14T03:05:01;7.93;;;1.37;;
41927;SDS011;27616;51.420;6.788;2023-03-14T03:07:26;7.97;;;1.30;;
41927;SDS011;27616;51.420;6.788;2023-03-14T03:09:54;7.23;;;1.10;;
41927;SDS011;27616;51.420;6.788;2023-03-14T03:12:20;9.90;;;1.43;;
41927;SDS011;27616;51.420;6.788;2023-03-14T03:14:46;5.20;;;1.10;;
41927;SDS011;27616;51.420;6.788;2023-03-14T03:17:13;6.30;;;1.10;;
41927;SDS011;27616;51.420;6.788;2023-03-14T03:19:39;9.03;;;1.40;;
41927;SDS011;27616;51.420;6.788;2023-03-14T03:22:05;7.83;;;1.30;;
41927;SDS011;27616;51.420;6.788;2023-03-14T03:24:31;6.83;;;1.27;;
41927;SDS011;27616;51.420;6.788;2023-03-14T03:26:57;9.27;;;1.40;;
41927;SDS011;27616;51.420;6.788;2023-03-14T03:29:23;9.17;;;1.40;;
41927;SDS011;27616;51.420;6.788;2023-03-14T03:31:49;10.23;;;1.40;;
41927;SDS011;27616;51.420;6.788;2023-03-14T03:34:15;9.13;;;1.40;;
41927;SDS011;27616;51.420;6.788;2023-03-14T03:36:41;11.60;;;1.40;;
41927;SDS011;27616;51.420;6.788;2023-03-14T03:39:07;10.20;;;1.67;;
41927;SDS011;27616;51.420;6.788;2023-03-14T03:41:33;6.97;;;1.30;;
41927;SDS011;27616;51.420;6.788;2023-03-14T03:44:00;5.47;;;1.10;;
41927;SDS011;27616;51.420;6.788;2023-03-14T03:46:26;7.97;;;1.20;;
41927;SDS011;27616;51.420;6.788;2023-03-14T03:48:55;9.40;;;1.37;;
41927;SDS011;27616;51.420;6.788;2023-03-14T03:51:22;5.17;;;1.23;;
41927;SDS011;27616;51.420;6.788;2023-03-14T03:53:48;7.87;;;1.60;;
41927;SDS011;27616;51.420;6.788;2023-03-14T03:56:19;7.33;;;1.37;;
41927;SDS011;27616;51.420;6.788;2023-03-14T03:58:45;9.80;;;1.37;;
41927;SDS011;27616;51.420;6.788;2023-03-14T04:01:10;6.63;;;1.30;;
41927;SDS011;27616;51.420;6.788;2023-03-14T04:03:36;7.90;;;1.60;;
41927;SDS011;27616;51.420;6.788;2023-03-14T04:06:06;10.98;;;1.17;;
41927;SDS011;27616;51.420;6.788;2023-03-14T04:08:36;9.10;;;1.57;;
41927;SDS011;27616;51.420;6.788;2023-03-14T04:11:03;7.43;;;2.00;;
41927;SDS011;27616;51.420;6.788;2023-03-14T04:13:44;6.03;;;1.27;;
41927;SDS011;27616;51.420;6.788;2023-03-14T04:16:20;8.27;;;1.13;;
41927;SDS011;27616;51.420;6.788;2023-03-14T04:18:49;5.40;;;1.20;;
41927;SDS011;27616;51.420;6.788;2023-03-14T04:21:18;8.52;;;1.38;;
41927;SDS011;27616;51.420;6.788;2023-03-14T04:23:47;7.53;;;1.80;;
41927;SDS011;27616;51.420;6.788;2023-03-14T04:26:14;8.20;;;1.70;;
41927;SDS011;27616;51.420;6.788;2023-03-14T04:28:40;7.83;;;1.30;;
41927;SDS011;27616;51.420;6.788;2023-03-14T04:31:07;8.87;;;1.23;;
41927;SDS011;27616;51.420;6.788;2023-03-14T04:33:34;7.87;;;1.37;;
41927;SDS011;27616;51.420;6.788;2023-03-14T04:36:02;7.53;;;1.40;;
41927;SDS011;27616;51.420;6.788;2023-03-14T04:38:30;9.73;;;1.93;;
41927;SDS011;27616;51.420;6.788;2023-03-14T04:40:56;8.07;;;1.80;;
41927;SDS011;27616;51.420;6.788;2023-03-14T04:43:27;8.73;;;1.80;;
41927;SDS011;27616;51.420;6.788;2023-03-14T04:46:01;5.83;;;1.27;;
41927;SDS011;27616;51.420;6.788;2023-03-14T04:48:27;6.87;;;1.27;;
41927;SDS011;27616;51.420;6.788;2023-03-14T04:50:53;5.90;;;1.30;;
41927;SDS011;27616;51.420;6.788;2023-03-14T04:53:20;2.27;;;1.00;;
41927;SDS011;27616;51.420;6.788;2023-03-14T04:55:49;4.67;;;1.30;;
41927;SDS011;27616;51.420;6.788;2023-03-14T04:58:16;3.47;;;0.80;;
41927;SDS011;27616;51.420;6.788;2023-03-14T05:00:43;4.10;;;1.30;;
41927;SDS011;27616;51.420;6.788;2023-03-14T05:03:32;13.90;;;6.78;;
41927;SDS011;27616;51.420;6.788;2023-03-14T05:06:16;3.30;;;1.07;;
41927;SDS011;27616;51.420;6.788;2023-03-14T05:08:51;4.10;;;1.30;;
41927;SDS011;27616;51.420;6.788;2023-03-14T05:11:36;5.50;;;1.80;;
41927;SDS011;27616;51.420;6.788;2023-03-14T05:14:07;6.83;;;2.07;;
41927;SDS011;27616;51.420;6.788;2023-03-14T05:16:53;6.30;;;2.30;;
41927;SDS011;27616;51.420;6.788;2023-03-14T05:19:34;11.17;;;3.00;;
41927;SDS011;27616;51.420;6.788;2023-03-14T05:22:19;7.23;;;3.67;;
41927;SDS011;27616;51.420;6.788;2023-03-14T05:24:44;10.70;;;4.10;;
41927;SDS011;27616;51.420;6.788;2023-03-14T05:27:20;12.40;;;4.57;;
41927;SDS011;27616;51.420;6.788;2023-03-14T05:30:04;12.93;;;5.37;;
41927;SDS011;27616;51.420;6.788;2023-03-14T05:32:49;11.57;;;4.67;;
41927;SDS011;27616;51.420;6.788;2023-03-14T05:35:36;6.07;;;2.00;;
41927;SDS011;27616;51.420;6.788;2023-03-14T05:38:20;6.33;;;1.67;;
41927;SDS011;27616;51.420;6.788;2023-03-14T05:41:04;3.97;;;1.67;;
41927;SDS011;27616;51.420;6.788;2023-03-14T05:43:52;2.72;;;1.10;;
41927;SDS011;27616;51.420;6.788;2023-03-14T05:46:50;2.70;;;1.07;;
41927;SDS011;27616;51.420;6.788;2023-03-14T05:49:27;5.70;;;1.17;;
41927;SDS011;27616;51.420;6.788;2023-03-14T05:52:10;5.60;;;1.23;;
41927;SDS011;27616;51.420;6.788;2023-03-14T05:54:54;19.80;;;11.00;;
41927;SDS011;27616;51.420;6.788;2023-03-14T05:57:34;11.80;;;4.67;;
41927;SDS011;27616;51.420;6.788;2023-03-14T06:00:19;5.90;;;1.20;;
41927;SDS011;27616;51.420;6.788;2023-03-14T06:02:59;8.50;;;1.83;;
41927;SDS011;27616;51.420;6.788;2023-03-14T06:05:29;3.33;;;1.23;;
41927;SDS011;27616;51.420;6.788;2023-03-14T06:07:58;5.30;;;1.23;;
41927;SDS011;27616;51.420;6.788;2023-03-14T06:10:26;4.13;;;1.13;;
41927;SDS011;27616;51.420;6.788;2023-03-14T06:12:52;5.57;;;1.23;;
41927;SDS011;27616;51.420;6.788;2023-03-14T06:15:19;3.73;;;0.93;;
41927;SDS011;27616;51.420;6.788;2023-03-14T06:17:48;5.43;;;1.20;;
41927;SDS011;27616;51.420;6.788;2023-03-14T06:20:15;4.20;;;1.03;;
41927;SDS011;27616;51.420;6.788;2023-03-14T06:22:41;2.50;;;1.10;;
41927;SDS011;27616;51.420;6.788;2023-03-14T06:25:08;1.87;;;0.70;;
41927;SDS011;27616;51.420;6.788;2023-03-14T06:27:34;5.47;;;0.97;;
41927;SDS011;27616;51.420;6.788;2023-03-14T06:30:01;3.63;;;1.00;;
41927;SDS011;27616;51.420;6.788;2023-03-14T06:32:30;1.85;;;0.80;;
41927;SDS011;27616;51.420;6.788;2023-03-14T06:34:59;4.07;;;0.90;;
41927;SDS011;27616;51.420;6.788;2023-03-14T06:37:29;3.53;;;1.40;;
41927;SDS011;27616;51.420;6.788;2023-03-14T06:39:56;3.17;;;0.80;;
41927;SDS011;27616;51.420;6.788;2023-03-14T06:42:42;3.13;;;1.13;;
41927;SDS011;27616;51.420;6.788;2023-03-14T06:45:13;3.10;;;1.00;;
41927;SDS011;27616;51.420;6.788;2023-03-14T06:47:39;8.60;;;5.13;;
41927;SDS011;27616;51.420;6.788;2023-03-14T06:50:07;2.73;;;1.47;;
41927;SDS011;27616;51.420;6.788;2023-03-14T06:52:35;2.20;;;0.63;;
41927;SDS011;27616;51.420;6.788;2023-03-14T06:55:01;4.43;;;1.60;;
41927;SDS011;27616;51.420;6.788;2023-03-14T06:57:31;3.90;;;1.20;;
41927;SDS011;27616;51.420;6.788;2023-03-14T06:59:57;1.77;;;0.50;;
41927;SDS011;27616;51.420;6.788;2023-03-14T07:02:24;5.27;;;0.60;;
41927;SDS011;27616;51.420;6.788;2023-03-14T07:04:50;1.43;;;0.70;;
41927;SDS011;27616;51.420;6.788;2023-03-14T07:07:15;0.50;;;0.33;;
41927;SDS011;27616;51.420;6.788;2023-03-14T07:09:42;0.97;;;0.40;;
41927;SDS011;27616;51.420;6.788;2023-03-14T07:12:08;2.80;;;0.70;;
41927;SDS011;27616;51.420;6.788;2023-03-14T07:14:34;1.77;;;0.40;;
41927;SDS011;27616;51.420;6.788;2023-03-14T07:17:01;2.47;;;1.00;;
41927;SDS011;27616;51.420;6.788;2023-03-14T07:19:26;2.83;;;1.27;;
41927;SDS011;27616;51.420;6.788;2023-03-14T07:21:52;3.73;;;1.33;;
41927;SDS011;27616;51.420;6.788;2023-03-14T07:24:22;4.63;;;1.40;;
41927;SDS011;27616;51.420;6.788;2023-03-14T07:26:48;5.30;;;2.10;;
41927;SDS011;27616;51.420;6.788;2023-03-14T07:29:14;5.20;;;1.93;;
41927;SDS011;27616;51.420;6.788;2023-03-14T07:31:40;4.83;;;2.17;;
41927;SDS011;27616;51.420;6.788;2023-03-14T07:34:06;6.07;;;2.80;;
41927;SDS011;27616;51.420;6.788;2023-03-14T07:36:36;6.50;;;2.87;;
41927;SDS011;27616;51.420;6.788;2023-03-14T07:39:02;7.07;;;2.50;;
41927;SDS011;27616;51.420;6.788;2023-03-14T07:42:07;3.03;;;1.30;;
41927;SDS011;27616;51.420;6.788;2023-03-14T07:44:52;6.37;;;2.00;;
41927;SDS011;27616;51.420;6.788;2023-03-14T07:47:17;4.10;;;1.93;;
41927;SDS011;27616;51.420;6.788;2023-03-14T07:49:43;7.83;;;3.10;;
41927;SDS011;27616;51.420;6.788;2023-03-14T07:52:09;7.33;;;2.73;;
41927;SDS011;27616;51.420;6.788;2023-03-14T07:54:34;6.80;;;2.97;;
41927;SDS011;27616;51.420;6.788;2023-03-14T07:57:00;8.13;;;3.20;;
41927;SDS011;27616;51.420;6.788;2023-03-14T07:59:27;7.37;;;3.30;;
41927;SDS011;27616;51.420;6.788;2023-03-14T08:01:52;7.87;;;3.80;;
41927;SDS011;27616;51.420;6.788;2023-03-14T08:04:18;7.37;;;4.50;;
41927;SDS011;27616;51.420;6.788;2023-03-14T08:06:44;8.70;;;4.37;;
41927;SDS011;27616;51.420;6.788;2023-03-14T08:09:10;9.47;;;4.80;;
41927;SDS011;27616;51.420;6.788;2023-03-14T08:11:36;9.27;;;4.70;;
41927;SDS011;27616;51.420;6.788;2023-03-14T08:14:01;7.17;;;3.90;;
41927;SDS011;27616;51.420;6.788;2023-03-14T08:16:27;6.73;;;3.00;;
41927;SDS011;27616;51.420;6.788;2023-03-14T08:18:53;3.60;;;2.33;;
41927;SDS011;27616;51.420;6.788;2023-03-14T08:21:19;4.33;;;2.43;;
41927;SDS011;27616;51.420;6.788;2023-03-14T08:23:44;5.80;;;2.50;;
41927;SDS011;27616;51.420;6.788;2023-03-14T08:26:10;6.90;;;4.00;;
41927;SDS011;27616;51.420;6.788;2023-03-14T08:28:36;11.70;;;6.60;;
41927;SDS011;27616;51.420;6.788;2023-03-14T08:31:02;12.47;;;6.07;;
41927;SDS011;27616;51.420;6.788;2023-03-14T08:33:28;12.43;;;6.97;;
41927;SDS011;27616;51.420;6.788;2023-03-14T08:35:55;16.93;;;10.93;;
41927;SDS011;27616;51.420;6.788;2023-03-14T08:38:21;10.37;;;5.87;;
41927;SDS011;27616;51.420;6.788;2023-03-14T08:40:47;8.03;;;3.60;;
41927;SDS011;27616;51.420;6.788;2023-03-14T08:43:14;4.53;;;2.80;;
41927;SDS011;27616;51.420;6.788;2023-03-14T08:45:40;4.83;;;2.40;;
41927;SDS011;27616;51.420;6.788;2023-03-14T08:48:06;3.50;;;2.10;;
41927;SDS011;27616;51.420;6.788;2023-03-14T08:50:32;3.93;;;2.10;;
41927;SDS011;27616;51.420;6.788;2023-03-14T08:52:58;3.80;;;1.77;;
41927;SDS011;27616;51.420;6.788;2023-03-14T08:55:25;3.90;;;1.57;;
41927;SDS011;27616;51.420;6.788;2023-03-14T08:57:52;2.90;;;1.90;;
41927;SDS011;27616;51.420;6.788;2023-03-14T09:00:18;4.53;;;1.77;;
41927;SDS011;27616;51.420;6.788;2023-03-14T09:02:45;5.57;;;1.80;;
41927;SDS011;27616;51.420;6.788;2023-03-14T09:05:11;3.27;;;1.00;;
41927;SDS011;27616;51.420;6.788;2023-03-14T09:07:37;6.47;;;1.60;;
41927;SDS011;27616;51.420;6.788;2023-03-14T09:10:04;2.70;;;1.03;;
41927;SDS011;27616;51.420;6.788;2023-03-14T09:12:30;4.37;;;1.57;;
41927;SDS011;27616;51.420;6.788;2023-03-14T09:14:56;1.90;;;0.70;;
41927;SDS011;27616;51.420;6.788;2023-03-14T09:17:22;3.23;;;0.70;;
41927;SDS011;27616;51.420;6.788;2023-03-14T09:19:47;2.93;;;0.77;;
41927;SDS011;27616;51.420;6.788;2023-03-14T09:22:13;2.03;;;0.73;;
41927;SDS011;27616;51.420;6.788;2023-03-14T09:24:40;3.47;;;1.00;;
41927;SDS011;27616;51.420;6.788;2023-03-14T09:27:06;6.37;;;1.40;;
41927;SDS011;27616;51.420;6.788;2023-03-14T09:29:32;4.10;;;0.80;;
41927;SDS011;27616;51.420;6.788;2023-03-14T09:31:58;2.40;;;0.80;;
41927;SDS011;27616;51.420;6.788;2023-03-14T09:34:24;2.97;;;0.83;;
41927;SDS011;27616;51.420;6.788;2023-03-14T09:36:50;2.00;;;0.80;;
41927;SDS011;27616;51.420;6.788;2023-03-14T09:39:16;2.10;;;0.90;;
41927;SDS011;27616;51.420;6.788;2023-03-14T09:41:49;1.97;;;1.30;;
41927;SDS011;27616;51.420;6.788;2023-03-14T09:46:52;3.83;;;1.30;;
41927;SDS011;27616;51.420;6.788;2023-03-14T09:49:20;3.13;;;1.25;;
41927;SDS011;27616;51.420;6.788;2023-03-14T09:51:51;4.17;;;2.30;;
41927;SDS011;27616;51.420;6.788;2023-03-14T09:54:30;5.37;;;2.77;;
41927;SDS011;27616;51.420;6.788;2023-03-14T09:56:56;4.03;;;1.90;;
41927;SDS011;27616;51.420;6.788;2023-03-14T09:59:22;3.80;;;1.90;;
41927;SDS011;27616;51.420;6.788;2023-03-14T10:01:48;3.93;;;2.00;;
41927;SDS011;27616;51.420;6.788;2023-03-14T10:04:15;4.00;;;1.93;;
41927;SDS011;27616;51.420;6.788;2023-03-14T10:06:45;4.07;;;1.90;;
41927;SDS011;27616;51.420;6.788;2023-03-14T10:09:22;6.10;;;2.30;;
41927;SDS011;27616;51.420;6.788;2023-03-14T10:11:55;5.03;;;2.30;;
41927;SDS011;27616;51.420;6.788;2023-03-14T10:14:32;4.53;;;2.43;;
41927;SDS011;27616;51.420;6.788;2023-03-14T10:17:10;3.50;;;1.97;;
41927;SDS011;27616;51.420;6.788;2023-03-14T10:19:41;3.40;;;1.70;;
41927;SDS011;27616;51.420;6.788;2023-03-14T10:22:18;3.97;;;1.80;;
41927;SDS011;27616;51.420;6.788;2023-03-14T10:24:46;5.13;;;2.20;;
41927;SDS011;27616;51.420;6.788;2023-03-14T10:27:19;4.00;;;2.20;;
41927;SDS011;27616;51.420;6.788;2023-03-14T10:29:53;5.47;;;2.33;;
41927;SDS011;27616;51.420;6.788;2023-03-14T10:32:28;4.07;;;2.17;;
41927;SDS011;27616;51.420;6.788;2023-03-14T10:37:56;3.10;;;1.57;;
41927;SDS011;27616;51.420;6.788;2023-03-14T10:40:31;3.23;;;1.20;;
41927;SDS011;27616;51.420;6.788;2023-03-14T10:43:04;5.57;;;1.77;;
41927;SDS011;27616;51.420;6.788;2023-03-14T10:45:36;6.53;;;2.07;;
41927;SDS011;27616;51.420;6.788;2023-03-14T10:50:59;3.47;;;0.97;;
41927;SDS011;27616;51.420;6.788;2023-03-14T10:53:45;2.83;;;1.00;;
41927;SDS011;27616;51.420;6.788;2023-03-14T10:56:17;4.37;;;1.40;;
41927;SDS011;27616;51.420;6.788;2023-03-14T10:58:48;5.60;;;1.93;;
41927;SDS011;27616;51.420;6.788;2023-03-14T11:09:20;2.43;;;1.10;;
41927;SDS011;27616;51.420;6.788;2023-03-14T11:12:03;1.93;;;0.70;;
41927;SDS011;27616;51.420;6.788;2023-03-14T11:14:41;4.97;;;1.23;;
41927;SDS011;27616;51.420;6.788;2023-03-14T11:25:12;7.13;;;2.00;;
41927;SDS011;27616;51.420;6.788;2023-03-14T11:28:05;3.93;;;1.67;;
41927;SDS011;27616;51.420;6.788;2023-03-14T11:30:44;4.43;;;1.93;;
41927;SDS011;27616;51.420;6.788;2023-03-14T11:33:15;6.27;;;1.70;;
41927;SDS011;27616;51.420;6.788;2023-03-14T11:35:53;6.00;;;1.80;;
41927;SDS011;27616;51.420;6.788;2023-03-14T11:38:33;11.88;;;2.15;;
41927;SDS011;27616;51.420;6.788;2023-03-14T11:41:04;8.60;;;1.47;;
41927;SDS011;27616;51.420;6.788;2023-03-14T11:43:38;6.10;;;1.07;;
41927;SDS011;27616;51.420;6.788;2023-03-14T11:46:09;3.97;;;1.30;;
41927;SDS011;27616;51.420;6.788;2023-03-14T11:51:30;5.87;;;1.60;;
41927;SDS011;27616;51.420;6.788;2023-03-14T11:54:01;3.63;;;1.40;;
41927;SDS011;27616;51.420;6.788;2023-03-14T11:56:44;3.53;;;1.43;;
41927;SDS011;27616;51.420;6.788;2023-03-14T11:59:17;4.67;;;1.13;;
41927;SDS011;27616;51.420;6.788;2023-03-14T12:10:38;5.93;;;1.63;;
41927;SDS011;27616;51.420;6.788;2023-03-14T12:15:40;6.80;;;1.60;;
41927;SDS011;27616;51.420;6.788;2023-03-14T12:18:20;8.57;;;2.17;;
41927;SDS011;27616;51.420;6.788;2023-03-14T12:20:58;8.27;;;2.60;;
41927;SDS011;27616;51.420;6.788;2023-03-14T12:23:26;9.80;;;2.47;;
41927;SDS011;27616;51.420;6.788;2023-03-14T12:26:43;11.47;;;2.23;;
41927;SDS011;27616;51.420;6.788;2023-03-14T12:41:51;8.00;;;1.57;;
41927;SDS011;27616;51.420;6.788;2023-03-14T12:46:59;6.30;;;2.23;;
41927;SDS011;27616;51.420;6.788;2023-03-14T12:49:37;11.03;;;2.80;;
41927;SDS011;27616;51.420;6.788;2023-03-14T12:52:04;10.03;;;2.37;;
41927;SDS011;27616;51.420;6.788;2023-03-14T12:57:48;10.37;;;2.30;;
41927;SDS011;27616;51.420;6.788;2023-03-14T13:00:35;11.37;;;2.10;;
41927;SDS011;27616;51.420;6.788;2023-03-14T13:11:21;12.10;;;2.40;;
41927;SDS011;27616;51.420;6.788;2023-03-14T13:13:49;12.13;;;1.80;;
41927;SDS011;27616;51.420;6.788;2023-03-14T13:16:21;10.37;;;2.30;;
41927;SDS011;27616;51.420;6.788;2023-03-14T13:18:48;11.97;;;2.60;;
41927;SDS011;27616;51.420;6.788;2023-03-14T13:21:25;16.37;;;3.00;;
41927;SDS011;27616;51.420;6.788;2023-03-14T13:24:00;20.80;;;3.43;;
41927;SDS011;27616;51.420;6.788;2023-03-14T13:26:35;14.57;;;3.70;;
41927;SDS011;27616;51.420;6.788;2023-03-14T13:29:09;19.77;;;3.60;;
41927;SDS011;27616;51.420;6.788;2023-03-14T13:31:52;17.27;;;2.80;;
41927;SDS011;27616;51.420;6.788;2023-03-14T13:34:24;23.43;;;3.67;;
41927;SDS011;27616;51.420;6.788;2023-03-14T13:36:51;19.35;;;3.05;;
41927;SDS011;27616;51.420;6.788;2023-03-14T13:39:25;14.47;;;2.47;;
41927;SDS011;27616;51.420;6.788;2023-03-14T13:41:53;19.97;;;3.17;;
41927;SDS011;27616;51.420;6.788;2023-03-14T13:44:33;19.77;;;2.70;;
41927;SDS011;27616;51.420;6.788;2023-03-14T13:47:01;22.33;;;2.93;;
41927;SDS011;27616;51.420;6.788;2023-03-14T13:49:29;17.33;;;2.80;;
41927;SDS011;27616;51.420;6.788;2023-03-14T13:52:00;19.80;;;2.63;;
41927;SDS011;27616;51.420;6.788;2023-03-14T13:54:27;20.67;;;3.50;;
41927;SDS011;27616;51.420;6.788;2023-03-14T13:57:03;21.23;;;2.70;;
41927;SDS011;27616;51.420;6.788;2023-03-14T13:59:31;18.97;;;3.07;;
41927;SDS011;27616;51.420;6.788;2023-03-14T14:01:59;20.87;;;2.90;;
41927;SDS011;27616;51.420;6.788;2023-03-14T14:07:16;22.20;;;3.27;;
41927;SDS011;27616;51.420;6.788;2023-03-14T14:09:44;17.13;;;2.63;;
41927;SDS011;27616;51.420;6.788;2023-03-14T14:12:14;24.47;;;3.07;;
41927;SDS011;27616;51.420;6.788;2023-03-14T14:14:49;22.40;;;3.30;;
41927;SDS011;27616;51.420;6.788;2023-03-14T14:17:33;18.53;;;2.67;;
41927;SDS011;27616;51.420;6.788;2023-03-14T14:20:15;20.87;;;3.00;;
41927;SDS011;27616;51.420;6.788;2023-03-14T14:22:43;16.53;;;2.20;;
41927;SDS011;27616;51.420;6.788;2023-03-14T14:25:12;13.00;;;2.07;;
41927;SDS011;27616;51.420;6.788;2023-03-14T14:27:41;15.50;;;2.53;;
41927;SDS011;27616;51.420;6.788;2023-03-14T14:32:44;12.40;;;2.23;;
41927;SDS011;27616;51.420;6.788;2023-03-14T14:35:21;12.30;;;3.63;;
41927;SDS011;27616;51.420;6.788;2023-03-14T14:37:49;12.97;;;1.93;;
41927;SDS011;27616;51.420;6.788;2023-03-14T14:40:19;13.67;;;2.00;;
41927;SDS011;27616;51.420;6.788;2023-03-14T14:42:47;8.80;;;2.07;;
41927;SDS011;27616;51.420;6.788;2023-03-14T14:45:18;11.23;;;1.90;;
41927;SDS011;27616;51.420;6.788;2023-03-14T14:47:53;12.47;;;2.23;;
41927;SDS011;27616;51.420;6.788;2023-03-14T14:52:59;10.67;;;2.10;;
41927;SDS011;27616;51.420;6.788;2023-03-14T14:55:34;8.83;;;1.70;;
41927;SDS011;27616;51.420;6.788;2023-03-14T14:58:40;11.63;;;1.53;;
41927;SDS011;27616;51.420;6.788;2023-03-14T15:01:04;8.65;;;2.25;;
41927;SDS011;27616;51.420;6.788;2023-03-14T15:03:35;12.57;;;1.80;;
41927;SDS011;27616;51.420;6.788;2023-03-14T15:06:01;9.30;;;1.60;;
41927;SDS011;27616;51.420;6.788;2023-03-14T15:08:28;11.57;;;1.87;;
41927;SDS011;27616;51.420;6.788;2023-03-14T15:10:55;7.67;;;1.73;;
41927;SDS011;27616;51.420;6.788;2023-03-14T15:13:22;11.63;;;2.07;;
41927;SDS011;27616;51.420;6.788;2023-03-14T15:15:49;12.27;;;1.90;;
41927;SDS011;27616;51.420;6.788;2023-03-14T15:18:21;10.03;;;1.93;;
41927;SDS011;27616;51.420;6.788;2023-03-14T15:20:49;10.93;;;1.87;;
41927;SDS011;27616;51.420;6.788;2023-03-14T15:23:15;7.83;;;1.50;;
41927;SDS011;27616;51.420;6.788;2023-03-14T15:25:43;10.30;;;2.20;;
41927;SDS011;27616;51.420;6.788;2023-03-14T15:28:18;7.70;;;1.53;;
41927;SDS011;27616;51.420;6.788;2023-03-14T15:30:46;7.53;;;1.50;;
41927;SDS011;27616;51.420;6.788;2023-03-14T15:33:12;6.87;;;1.50;;
41927;SDS011;27616;51.420;6.788;2023-03-14T15:35:38;12.90;;;1.80;;
41927;SDS011;27616;51.420;6.788;2023-03-14T15:38:04;10.97;;;1.43;;
41927;SDS011;27616;51.420;6.788;2023-03-14T15:40:30;6.20;;;1.17;;
41927;SDS011;27616;51.420;6.788;2023-03-14T15:42:56;7.97;;;1.30;;
41927;SDS011;27616;51.420;6.788;2023-03-14T15:45:22;7.20;;;1.37;;
41927;SDS011;27616;51.420;6.788;2023-03-14T15:47:47;7.23;;;1.40;;
41927;SDS011;27616;51.420;6.788;2023-03-14T15:50:13;8.80;;;1.63;;
41927;SDS011;27616;51.420;6.788;2023-03-14T15:52:39;9.93;;;1.57;;
41927;SDS011;27616;51.420;6.788;2023-03-14T15:55:04;8.57;;;2.00;;
41927;SDS011;27616;51.420;6.788;2023-03-14T15:57:30;6.53;;;1.33;;
41927;SDS011;27616;51.420;6.788;2023-03-14T15:59:56;11.20;;;2.00;;
41927;SDS011;27616;51.420;6.788;2023-03-14T16:02:22;6.20;;;1.20;;
41927;SDS011;27616;51.420;6.788;2023-03-14T16:04:47;13.57;;;1.60;;
41927;SDS011;27616;51.420;6.788;2023-03-14T16:07:13;7.80;;;1.80;;
41927;SDS011;27616;51.420;6.788;2023-03-14T16:09:39;9.53;;;2.10;;
41927;SDS011;27616;51.420;6.788;2023-03-14T16:12:04;9.33;;;1.90;;
41927;SDS011;27616;51.420;6.788;2023-03-14T16:14:32;8.40;;;1.90;;
41927;SDS011;27616;51.420;6.788;2023-03-14T16:16:58;12.63;;;2.30;;
41927;SDS011;27616;51.420;6.788;2023-03-14T16:19:26;9.23;;;2.00;;
41927;SDS011;27616;51.420;6.788;2023-03-14T16:21:52;6.55;;;1.40;;
41927;SDS011;27616;51.420;6.788;2023-03-14T16:24:18;8.73;;;1.87;;
41927;SDS011;27616;51.420;6.788;2023-03-14T16:26:44;8.47;;;2.13;;
41927;SDS011;27616;51.420;6.788;2023-03-14T16:29:10;7.57;;;1.70;;
41927;SDS011;27616;51.420;6.788;2023-03-14T16:31:36;7.10;;;1.30;;